createdAt,value
2019-04-26T00:02:13.992Z,74.30
2019-04-26T00:04:42.510Z,74.60
2019-04-26T00:07:11.552Z,75.00
2019-04-26T00:09:41.364Z,75.20
2019-04-26T00:12:29.701Z,75.40
2019-04-26T00:15:16.623Z,75.90
2019-04-26T00:17:47.225Z,76.70
2019-04-26T00:20:17.002Z,77.00
2019-04-26T00:22:47.125Z,77.60
2019-04-26T00:25:16.554Z,77.40
2019-04-26T00:27:44.998Z,77.00
2019-04-26T00:30:14.864Z,76.80
2019-04-26T00:32:43.500Z,77.00
2019-04-26T00:35:12.937Z,77.00
2019-04-26T00:37:42.610Z,77.60
2019-04-26T00:40:11.681Z,77.40
2019-04-26T00:42:41.578Z,77.60
2019-04-26T00:45:10.118Z,77.70
2019-04-26T00:47:39.019Z,77.60
2019-04-26T00:50:08.459Z,77.60
2019-04-26T00:52:57.770Z,77.70
2019-04-26T00:55:26.480Z,78.10
2019-04-26T00:57:55.563Z,77.90
2019-04-26T01:00:24.511Z,77.50
2019-04-26T01:02:56.706Z,77.70
2019-04-26T01:05:25.363Z,77.80
2019-04-26T01:07:55.598Z,77.80
2019-04-26T01:10:24.203Z,78.50
2019-04-26T01:12:52.736Z,77.50
2019-04-26T01:15:22.049Z,77.40
2019-04-26T01:17:51.758Z,77.40
2019-04-26T01:20:24.610Z,77.20
2019-04-26T01:22:56.213Z,76.90
2019-04-26T01:25:33.505Z,76.90
2019-04-26T01:28:04.507Z,76.90
2019-04-26T01:30:34.969Z,76.80
2019-04-26T01:33:04.184Z,76.80
2019-04-26T01:35:32.755Z,76.90
2019-04-26T01:38:02.763Z,76.60
2019-04-26T01:40:32.860Z,76.50
2019-04-26T01:43:22.649Z,76.40
2019-04-26T01:46:04.386Z,76.40
2019-04-26T01:48:46.143Z,76.70
2019-04-26T01:51:26.827Z,76.80
2019-04-26T01:53:55.724Z,76.60
2019-04-26T01:56:27.271Z,76.60
2019-04-26T01:58:55.859Z,76.80
2019-04-26T02:01:26.092Z,76.70
2019-04-26T02:03:54.668Z,76.50
2019-04-26T02:06:29.051Z,76.70
2019-04-26T02:08:54.377Z,76.60
2019-04-26T02:11:24.091Z,76.40
2019-04-26T02:13:53.186Z,76.30
2019-04-26T02:16:23.666Z,76.30
2019-04-26T02:18:51.907Z,76.20
2019-04-26T02:21:26.321Z,76.30
2019-04-26T02:23:57.321Z,76.10
2019-04-26T02:26:39.946Z,76.10
2019-04-26T02:29:14.099Z,75.50
2019-04-26T02:31:44.726Z,75.00
2019-04-26T02:34:14.663Z,74.90
2019-04-26T02:36:57.304Z,73.90
2019-04-26T02:39:22.560Z,73.40
2019-04-26T02:41:54.071Z,73.20
2019-04-26T02:44:28.866Z,73.10
2019-04-26T02:47:24.584Z,72.50
2019-04-26T02:49:56.907Z,71.90
2019-04-26T02:52:39.620Z,72.20
2019-04-26T02:55:16.935Z,72.50
2019-04-26T02:57:48.631Z,72.70
2019-04-26T03:00:19.326Z,72.50
2019-04-26T03:02:50.927Z,72.90
2019-04-26T03:05:20.333Z,72.90
2019-04-26T03:07:54.919Z,73.00
2019-04-26T03:10:26.508Z,73.10
2019-04-26T03:12:58.279Z,73.30
2019-04-26T03:15:35.386Z,73.40
2019-04-26T03:18:25.964Z,73.50
2019-04-26T03:21:00.135Z,73.70
2019-04-26T03:23:52.828Z,73.70
2019-04-26T03:26:16.850Z,73.60
2019-04-26T03:29:09.260Z,73.10
2019-04-26T03:31:55.790Z,72.40
2019-04-26T03:34:36.331Z,73.10
2019-04-26T03:37:27.671Z,73.90
2019-04-26T03:40:30.485Z,74.60
2019-04-26T03:43:17.029Z,75.50
2019-04-26T03:46:05.058Z,76.20
2019-04-26T03:48:37.771Z,76.00
2019-04-26T03:51:42.979Z,76.80
2019-04-26T03:54:26.648Z,78.10
2019-04-26T03:57:19.188Z,78.40
2019-04-26T03:59:52.444Z,80.10
2019-04-26T04:02:31.408Z,80.50
2019-04-26T04:05:04.580Z,81.40
2019-04-26T04:07:40.026Z,81.30
2019-04-26T04:10:11.719Z,82.90
2019-04-26T04:12:44.440Z,84.60
2019-04-26T04:15:33.273Z,84.70
2019-04-26T04:18:06.503Z,85.90
2019-04-26T04:20:48.312Z,86.20
2019-04-26T04:23:41.875Z,86.80
2019-04-26T04:26:14.259Z,86.90
2019-04-26T04:28:46.478Z,87.40
2019-04-26T04:31:19.101Z,87.10
2019-04-26T04:33:56.679Z,86.70
2019-04-26T04:36:28.728Z,87.30
2019-04-26T04:39:11.231Z,88.00
2019-04-26T04:42:07.002Z,87.60
2019-04-26T04:44:59.427Z,88.70
2019-04-26T04:47:32.744Z,88.70
2019-04-26T04:50:11.627Z,88.90
2019-04-26T04:52:54.999Z,90.00
2019-04-26T04:55:38.382Z,90.10
2019-04-26T04:58:30.942Z,90.20
2019-04-26T05:01:06.700Z,90.60
2019-04-26T05:03:57.844Z,90.40
2019-04-26T05:06:51.186Z,90.40
2019-04-26T05:09:28.781Z,90.80
2019-04-26T05:12:00.466Z,90.90
2019-04-26T05:14:52.258Z,91.20
2019-04-26T05:17:33.056Z,90.90
2019-04-26T05:20:29.035Z,91.40
2019-04-26T05:23:15.431Z,91.10
2019-04-26T05:26:00.319Z,91.00
2019-04-26T05:28:55.981Z,90.90
2019-04-26T05:31:31.682Z,90.70
2019-04-26T05:34:09.082Z,91.10
2019-04-26T05:37:06.428Z,90.90
2019-04-26T05:39:43.906Z,90.70
2019-04-26T05:42:20.126Z,90.90
2019-04-26T05:45:23.574Z,90.40
2019-04-26T05:48:22.421Z,90.70
2019-04-26T05:51:07.257Z,90.70
2019-04-26T05:54:03.282Z,90.70
2019-04-26T05:57:12.100Z,90.70
2019-04-26T05:59:54.942Z,90.90
2019-04-26T06:02:59.416Z,90.90
2019-04-26T06:05:54.693Z,91.00
2019-04-26T06:08:59.668Z,91.10
2019-04-26T06:11:35.722Z,91.10
2019-04-26T06:14:34.315Z,91.10
2019-04-26T06:17:40.735Z,91.00
2019-04-26T06:20:36.891Z,90.90
2019-04-26T06:23:20.550Z,91.20
2019-04-26T06:26:18.124Z,91.40
2019-04-26T06:28:49.727Z,91.30
2019-04-26T06:31:26.949Z,91.50
2019-04-26T06:34:15.102Z,91.10
2019-04-26T06:36:51.117Z,90.70
2019-04-26T06:39:24.298Z,90.60
2019-04-26T06:42:12.911Z,90.50
2019-04-26T06:45:07.130Z,90.30
2019-04-26T06:47:45.903Z,90.40
2019-04-26T06:50:30.946Z,90.40
2019-04-26T06:53:20.075Z,90.60
2019-04-26T06:56:09.874Z,90.50
2019-04-26T06:58:59.437Z,90.30
2019-04-26T07:01:31.176Z,90.50
2019-04-26T07:04:21.318Z,90.60
2019-04-26T07:07:04.598Z,90.80
2019-04-26T07:09:51.526Z,90.90
2019-04-26T07:12:27.750Z,91.00
2019-04-26T07:15:03.755Z,90.70
2019-04-26T07:18:10.825Z,90.60
2019-04-26T07:21:10.873Z,90.70
2019-04-26T07:23:46.632Z,90.80
2019-04-26T07:26:46.893Z,91.00
2019-04-26T07:29:28.920Z,90.90
2019-04-26T07:32:03.354Z,91.30
2019-04-26T07:34:51.449Z,91.40
2019-04-26T07:37:56.462Z,91.20
2019-04-26T07:41:01.728Z,91.80
2019-04-26T07:43:55.998Z,91.90
2019-04-26T07:46:27.567Z,92.00
2019-04-26T07:48:59.142Z,91.80
2019-04-26T07:51:33.589Z,91.80
2019-04-26T07:54:24.948Z,91.60
2019-04-26T07:57:11.225Z,91.70
2019-04-26T07:59:59.519Z,91.20
2019-04-26T08:02:38.621Z,91.80
2019-04-26T08:05:17.359Z,91.80
2019-04-26T08:07:51.810Z,91.80
2019-04-26T08:10:23.141Z,91.70
2019-04-26T08:12:54.705Z,91.60
2019-04-26T08:15:36.298Z,91.70
2019-04-26T08:18:09.460Z,91.80
2019-04-26T08:20:42.904Z,91.80
2019-04-26T08:23:35.138Z,91.30
2019-04-26T08:25:47.694Z,91.10
2019-04-26T08:28:19.350Z,91.30
2019-04-26T08:30:50.668Z,91.00
2019-04-26T08:33:26.385Z,91.30
2019-04-26T08:35:57.092Z,91.30
2019-04-26T08:38:27.631Z,90.70
2019-04-26T08:41:00.363Z,91.30
2019-04-26T08:43:47.336Z,91.40
2019-04-26T08:46:23.754Z,91.30
2019-04-26T08:49:02.165Z,91.10
2019-04-26T08:51:30.398Z,90.80
2019-04-26T08:54:00.084Z,90.50
2019-04-26T08:56:34.820Z,90.50
2019-04-26T08:59:23.243Z,90.10
2019-04-26T09:01:57.796Z,90.50
2019-04-26T09:04:39.225Z,90.40
2019-04-26T09:07:12.479Z,90.60
2019-04-26T09:09:44.032Z,90.90
2019-04-26T09:12:22.993Z,90.40
2019-04-26T09:14:49.020Z,90.40
2019-04-26T09:17:17.640Z,90.90
2019-04-26T09:19:46.369Z,90.80
2019-04-26T09:22:16.551Z,90.40
2019-04-26T09:24:49.371Z,90.20
2019-04-26T09:27:28.307Z,90.60
2019-04-26T09:30:07.006Z,90.60
2019-04-26T09:32:46.088Z,91.10
2019-04-26T09:35:16.247Z,91.10
2019-04-26T09:37:44.975Z,91.00
2019-04-26T09:40:20.952Z,90.70
2019-04-26T09:42:48.270Z,90.60
2019-04-26T09:45:18.707Z,91.20
2019-04-26T09:47:48.897Z,91.10
2019-04-26T09:50:19.155Z,91.40
2019-04-26T09:52:58.045Z,91.40
2019-04-26T09:55:35.327Z,91.40
2019-04-26T09:57:57.083Z,91.00
2019-04-26T10:00:27.615Z,91.20
2019-04-26T10:02:56.061Z,91.20
2019-04-26T10:05:24.582Z,90.70
2019-04-26T10:07:53.131Z,90.90
2019-04-26T10:10:23.270Z,90.90
2019-04-26T10:12:53.591Z,90.90
2019-04-26T10:15:26.834Z,90.80
2019-04-26T10:17:54.028Z,90.20
2019-04-26T10:20:22.904Z,90.10
2019-04-26T10:22:52.815Z,88.90
2019-04-26T10:25:21.298Z,89.00
2019-04-26T10:27:49.830Z,89.30
2019-04-26T10:30:18.441Z,87.80
2019-04-26T10:32:47.229Z,87.50
2019-04-26T10:35:17.550Z,87.80
2019-04-26T10:37:48.092Z,88.60
2019-04-26T10:40:16.455Z,88.50
2019-04-26T10:42:45.098Z,88.10
2019-04-26T10:45:16.172Z,87.90
2019-04-26T10:47:44.371Z,87.30
2019-04-26T10:50:13.167Z,86.70
2019-04-26T10:52:53.619Z,86.90
2019-04-26T10:55:21.216Z,87.80
2019-04-26T10:58:01.604Z,87.60
2019-04-26T11:00:41.899Z,87.40
2019-04-26T11:03:10.580Z,87.40
2019-04-26T11:05:39.067Z,88.60
2019-04-26T11:08:07.653Z,88.40
2019-04-26T11:10:48.143Z,86.80
2019-04-26T11:13:07.174Z,85.90
2019-04-26T11:15:35.713Z,86.40
2019-04-26T11:18:04.520Z,88.40
2019-04-26T11:20:33.058Z,89.40
2019-04-26T11:23:01.659Z,87.40
2019-04-26T11:25:30.148Z,87.20
2019-04-26T11:27:58.592Z,87.40
2019-04-26T11:30:27.335Z,87.60
2019-04-26T11:32:55.852Z,86.00
2019-04-26T11:35:24.434Z,85.90
2019-04-26T11:37:55.311Z,86.20
2019-04-26T11:40:23.363Z,86.30
2019-04-26T11:42:52.093Z,86.60
2019-04-26T11:45:20.744Z,86.00
2019-04-26T11:47:56.273Z,86.10
2019-04-26T11:50:19.685Z,86.80
2019-04-26T11:52:48.287Z,85.90
2019-04-26T11:55:16.922Z,85.60
2019-04-26T11:57:47.495Z,83.80
2019-04-26T12:00:18.995Z,85.20
2019-04-26T12:02:50.741Z,85.60
2019-04-26T12:05:34.211Z,85.30
2019-04-26T12:08:13.267Z,86.30
2019-04-26T12:10:44.520Z,85.80
2019-04-26T12:13:12.354Z,85.80
2019-04-26T12:15:43.698Z,85.40
2019-04-26T12:18:11.271Z,85.60
2019-04-26T12:20:39.742Z,86.30
2019-04-26T12:23:08.292Z,86.90
2019-04-26T12:25:38.858Z,87.20
2019-04-26T12:28:07.418Z,87.20
2019-04-26T12:30:36.075Z,87.00
2019-04-26T12:33:04.771Z,87.90
2019-04-26T12:35:33.389Z,87.00
2019-04-26T12:38:01.941Z,85.60
2019-04-26T12:40:30.450Z,85.10
2019-04-26T12:42:59.104Z,84.20
2019-04-26T12:45:34.895Z,85.40
2019-04-26T12:48:07.864Z,84.80
2019-04-26T12:50:37.645Z,85.80
2019-04-26T12:53:05.591Z,85.60
2019-04-26T12:55:34.042Z,84.90
2019-04-26T12:58:02.571Z,84.10
2019-04-26T13:00:32.912Z,84.20
2019-04-26T13:03:03.003Z,83.60
2019-04-26T13:05:31.582Z,82.30
2019-04-26T13:08:00.225Z,82.80
2019-04-26T13:10:31.408Z,83.20
2019-04-26T13:13:10.910Z,83.30
2019-04-26T13:16:05.500Z,81.40
2019-04-26T13:18:34.168Z,82.30
2019-04-26T13:21:03.152Z,82.60
2019-04-26T13:23:32.682Z,83.40
2019-04-26T13:26:02.666Z,83.20
2019-04-26T13:28:31.294Z,83.70
2019-04-26T13:31:02.263Z,83.10
2019-04-26T13:33:30.118Z,84.00
2019-04-26T13:36:05.895Z,82.80
2019-04-26T13:38:28.959Z,84.00
2019-04-26T13:40:59.684Z,82.50
2019-04-26T13:43:28.714Z,82.00
2019-04-26T13:46:05.116Z,81.00
2019-04-26T13:48:45.407Z,81.60
2019-04-26T13:51:34.084Z,82.30
2019-04-26T13:54:02.638Z,81.00
2019-04-26T13:56:32.073Z,80.70
2019-04-26T13:59:01.341Z,80.50
2019-04-26T14:01:29.856Z,82.50
2019-04-26T14:03:58.337Z,82.00
2019-04-26T14:06:26.884Z,80.80
2019-04-26T14:08:58.175Z,80.40
2019-04-26T14:11:29.373Z,79.40
2019-04-26T14:14:00.021Z,79.70
2019-04-26T14:16:27.603Z,78.80
2019-04-26T14:18:56.395Z,78.20
2019-04-26T14:21:24.854Z,78.50
2019-04-26T14:24:11.242Z,77.40
2019-04-26T14:26:41.545Z,77.50
2019-04-26T14:29:10.162Z,77.60
2019-04-26T14:31:38.841Z,76.10
2019-04-26T14:34:07.459Z,76.30
2019-04-26T14:36:36.151Z,76.70
2019-04-26T14:39:10.708Z,74.70
2019-04-26T14:41:38.218Z,74.10
2019-04-26T14:44:15.216Z,72.10
2019-04-26T14:46:48.150Z,72.20
2019-04-26T14:49:07.380Z,72.10
2019-04-26T14:51:35.947Z,71.30
2019-04-26T14:54:07.350Z,71.10
2019-04-26T14:56:34.790Z,71.20
2019-04-26T14:59:08.188Z,69.20
2019-04-26T15:01:47.492Z,69.20
2019-04-26T15:04:33.028Z,70.10
2019-04-26T15:07:03.009Z,69.70
2019-04-26T15:09:35.822Z,68.10
2019-04-26T15:12:03.512Z,68.00
2019-04-26T15:14:33.229Z,68.30
2019-04-26T15:17:03.358Z,68.20
2019-04-26T15:19:35.051Z,67.70
2019-04-26T15:22:05.576Z,67.00
2019-04-26T15:24:35.066Z,66.00
2019-04-26T15:27:03.353Z,66.40
2019-04-26T15:29:32.810Z,66.60
2019-04-26T15:32:04.860Z,65.40
2019-04-26T15:34:31.682Z,66.90
2019-04-26T15:37:00.144Z,65.30
2019-04-26T15:39:35.774Z,65.80
2019-04-26T15:42:29.253Z,67.00
2019-04-26T15:45:01.930Z,67.40
2019-04-26T15:47:36.569Z,66.90
2019-04-26T15:50:13.666Z,64.10
2019-04-26T15:52:43.755Z,65.30
2019-04-26T15:55:13.300Z,66.80
2019-04-26T15:57:46.913Z,66.10
2019-04-26T16:00:15.600Z,66.10
2019-04-26T16:02:44.162Z,64.90
2019-04-26T16:05:12.933Z,64.90
2019-04-26T16:07:42.887Z,63.10
2019-04-26T16:10:12.181Z,63.30
2019-04-26T16:12:42.300Z,64.30
2019-04-26T16:15:14.631Z,62.90
2019-04-26T16:17:41.325Z,63.60
2019-04-26T16:20:10.101Z,63.20
2019-04-26T16:22:38.768Z,63.90
2019-04-26T16:25:07.651Z,64.20
2019-04-26T16:27:36.135Z,64.50
2019-04-26T16:30:12.859Z,66.00
2019-04-26T16:33:02.712Z,65.70
2019-04-26T16:35:32.423Z,65.20
2019-04-26T16:38:06.962Z,64.80
2019-04-26T16:40:33.065Z,64.60
2019-04-26T16:43:02.168Z,65.10
2019-04-26T16:45:32.792Z,65.40
2019-04-26T16:48:02.153Z,65.30
2019-04-26T16:50:32.229Z,65.70
2019-04-26T16:53:01.146Z,65.70
2019-04-26T16:55:37.995Z,65.70
2019-04-26T16:57:59.934Z,65.80
2019-04-26T17:00:48.252Z,66.20
2019-04-26T17:05:46.964Z,66.60
2019-04-26T17:08:05.029Z,66.00
2019-04-26T17:09:41.876Z,65.70
2019-04-26T17:10:30.085Z,66.90
2019-04-26T17:12:58.789Z,67.00
2019-04-26T17:15:27.361Z,67.40
2019-04-26T17:17:55.846Z,67.20
2019-04-26T17:20:24.518Z,67.50
2019-04-26T17:23:01.085Z,68.00
2019-04-26T17:25:33.779Z,68.10
2019-04-26T17:28:03.422Z,67.90
2019-04-26T17:30:34.446Z,68.30
2019-04-26T17:33:02.976Z,68.20
2019-04-26T17:35:32.764Z,68.40
2019-04-26T17:38:04.973Z,68.00
2019-04-26T17:40:36.363Z,68.40
2019-04-26T17:43:05.349Z,68.50
2019-04-26T17:45:36.311Z,69.20
2019-04-26T17:48:06.516Z,69.10
2019-04-26T17:50:35.367Z,68.50
2019-04-26T17:53:06.584Z,68.70
2019-04-26T17:55:34.002Z,70.10
2019-04-26T17:58:12.086Z,69.50
2019-04-26T18:00:46.041Z,70.00
2019-04-26T18:03:07.635Z,70.40
2019-04-26T18:05:55.936Z,70.40
2019-04-26T18:08:31.357Z,70.70
2019-04-26T18:10:41.336Z,71.40
2019-04-26T18:13:11.277Z,71.60
2019-04-26T18:15:40.005Z,71.50
2019-04-26T18:18:27.757Z,71.30
2019-04-26T18:20:58.040Z,71.80
2019-04-26T18:23:26.751Z,71.80
2019-04-26T18:25:57.021Z,72.50
2019-04-26T18:28:25.611Z,73.10
2019-04-26T18:30:54.447Z,73.00
2019-04-26T18:33:25.975Z,72.80
2019-04-26T18:35:57.293Z,73.40
2019-04-26T18:38:24.809Z,73.70
2019-04-26T18:41:00.973Z,74.00
2019-04-26T18:43:24.442Z,74.30
2019-04-26T18:45:58.585Z,74.70
2019-04-26T18:48:25.068Z,75.30
2019-04-26T18:50:55.287Z,75.20
2019-04-26T18:53:25.789Z,75.20
2019-04-26T18:55:54.891Z,75.60
2019-04-26T18:58:23.626Z,75.60
2019-04-26T19:00:53.114Z,76.20
2019-04-26T19:03:24.704Z,76.00
2019-04-26T19:05:54.081Z,76.10
2019-04-26T19:08:27.396Z,76.10
2019-04-26T19:11:00.712Z,76.80
2019-04-26T19:13:41.713Z,76.90
2019-04-26T19:16:28.576Z,76.90
2019-04-26T19:19:01.675Z,77.00
2019-04-26T19:21:40.665Z,77.00
2019-04-26T19:24:17.240Z,78.10
2019-04-26T19:26:39.539Z,77.50
2019-04-26T19:29:16.282Z,77.80
2019-04-26T19:31:38.438Z,78.00
2019-04-26T19:34:07.120Z,77.80
2019-04-26T19:36:37.165Z,78.20
2019-04-26T19:39:07.632Z,77.90
2019-04-26T19:41:36.333Z,78.10
2019-04-26T19:44:05.462Z,78.10
2019-04-26T19:46:44.559Z,78.40
2019-04-26T19:49:33.277Z,78.50
2019-04-26T19:52:18.463Z,78.70
2019-04-26T19:54:53.042Z,78.80
2019-04-26T19:57:39.462Z,79.40
2019-04-26T20:00:09.720Z,79.50
2019-04-26T20:02:39.273Z,79.30
2019-04-26T20:05:08.233Z,79.30
2019-04-26T20:07:36.751Z,80.10
2019-04-26T20:10:06.817Z,79.70
2019-04-26T20:12:37.911Z,79.50
2019-04-26T20:15:07.574Z,80.20
2019-04-26T20:17:36.142Z,80.10
2019-04-26T20:20:16.840Z,80.30
2019-04-26T20:22:35.487Z,80.60
2019-04-26T20:25:04.610Z,80.60
2019-04-26T20:27:33.221Z,81.00
2019-04-26T20:30:02.727Z,80.90
2019-04-26T20:32:32.897Z,81.20
2019-04-26T20:35:05.815Z,81.10
2019-04-26T20:37:34.354Z,81.20
2019-04-26T20:40:18.597Z,81.80
2019-04-26T20:42:33.610Z,82.10
2019-04-26T20:45:04.375Z,82.10
2019-04-26T20:47:32.341Z,82.30
2019-04-26T20:50:02.890Z,82.30
2019-04-26T20:52:32.161Z,82.90
2019-04-26T20:55:00.874Z,82.90
2019-04-26T20:57:31.370Z,82.90
2019-04-26T21:00:03.330Z,82.40
2019-04-26T21:02:29.847Z,82.60
2019-04-26T21:04:59.661Z,82.40
2019-04-26T21:07:28.146Z,82.80
2019-04-26T21:09:56.950Z,82.60
2019-04-26T21:12:25.581Z,82.40
2019-04-26T21:14:54.126Z,82.30
2019-04-26T21:17:26.010Z,82.40
2019-04-26T21:19:54.878Z,82.60
2019-04-26T21:22:28.890Z,82.40
2019-04-26T21:24:59.286Z,82.70
2019-04-26T21:27:33.393Z,83.00
2019-04-26T21:30:15.874Z,82.80
2019-04-26T21:32:46.144Z,83.40
2019-04-26T21:35:20.485Z,83.30
2019-04-26T21:37:54.034Z,83.20
2019-04-26T21:40:33.584Z,83.20
2019-04-26T21:43:03.241Z,83.40
2019-04-26T21:45:33.554Z,83.50
2019-04-26T21:48:06.322Z,83.00
2019-04-26T21:50:35.756Z,83.40
2019-04-26T21:53:06.752Z,83.20
2019-04-26T21:55:38.364Z,83.60
2019-04-26T21:58:05.192Z,84.30
2019-04-26T22:00:50.393Z,84.40
2019-04-26T22:03:19.509Z,84.30
2019-04-26T22:05:49.849Z,84.30
2019-04-26T22:08:24.594Z,84.30
2019-04-26T22:10:50.389Z,84.30
2019-04-26T22:13:26.536Z,84.30
2019-04-26T22:16:07.732Z,84.20
2019-04-26T22:18:37.771Z,84.00
2019-04-26T22:21:07.943Z,84.10
2019-04-26T22:23:38.056Z,84.30
2019-04-26T22:26:08.612Z,84.30
2019-04-26T22:28:37.621Z,84.80
2019-04-26T22:31:08.508Z,85.30
2019-04-26T22:33:36.533Z,84.20
2019-04-26T22:36:05.346Z,84.40
2019-04-26T22:38:34.097Z,84.40
2019-04-26T22:41:03.210Z,84.30
2019-04-26T22:43:36.290Z,84.10
2019-04-26T22:46:06.538Z,84.10
2019-04-26T22:48:44.054Z,85.00
2019-04-26T22:51:14.030Z,84.50
2019-04-26T22:53:43.390Z,84.40
2019-04-26T22:56:13.374Z,84.30
2019-04-26T22:58:44.017Z,84.50
2019-04-26T23:01:12.534Z,84.10
2019-04-26T23:03:43.622Z,84.20
2019-04-26T23:06:12.739Z,83.90
2019-04-26T23:08:43.728Z,83.60
2019-04-26T23:11:13.397Z,83.80
2019-04-26T23:13:46.076Z,84.00
2019-04-26T23:16:28.328Z,83.50
2019-04-26T23:19:07.991Z,83.50
2019-04-26T23:21:38.253Z,83.30
2019-04-26T23:24:06.779Z,83.40
2019-04-26T23:26:37.579Z,83.60
2019-04-26T23:29:08.652Z,84.70
2019-04-26T23:31:37.447Z,84.40
2019-04-26T23:34:06.442Z,85.00
2019-04-26T23:36:34.977Z,84.10
2019-04-26T23:39:07.695Z,83.90
2019-04-26T23:41:37.635Z,84.00
2019-04-26T23:44:06.778Z,84.30
2019-04-26T23:46:35.467Z,84.30
2019-04-26T23:49:04.139Z,84.30
2019-04-26T23:51:33.960Z,84.60
2019-04-26T23:54:03.297Z,84.40
2019-04-26T23:56:33.474Z,84.10
2019-04-26T23:59:03.587Z,84.20
